sensor_id;sensor_type;location;lat;lon;timestamp;pressure;altitude;pressure_sealevel;temperature
73673;BMP280;61972;19.480;-99.240;2022-12-08T00:01:08;77856.09;;;24.83
73673;BMP280;61972;19.480;-99.240;2022-12-08T00:03:35;77854.38;;;24.81
73673;BMP280;61972;19.480;-99.240;2022-12-08T00:06:03;77862.41;;;24.84
73673;BMP280;61972;19.480;-99.240;2022-12-08T00:08:48;77866.53;;;24.83
73673;BMP280;61972;19.480;-99.240;2022-12-08T00:11:33;77866.34;;;24.80
73673;BMP280;61972;19.480;-99.240;2022-12-08T00:13:59;77871.56;;;24.80
73673;BMP280;61972;19.480;-99.240;2022-12-08T00:16:25;77868.97;;;24.80
73673;BMP280;61972;19.480;-99.240;2022-12-08T00:18:51;77875.13;;;24.79
73673;BMP280;61972;19.480;-99.240;2022-12-08T00:21:18;77878.13;;;24.77
73673;BMP280;61972;19.480;-99.240;2022-12-08T00:23:44;77875.50;;;24.77
73673;BMP280;61972;19.480;-99.240;2022-12-08T00:26:10;77878.13;;;24.77
73673;BMP280;61972;19.480;-99.240;2022-12-08T00:28:36;77883.91;;;24.77
73673;BMP280;61972;19.480;-99.240;2022-12-08T00:31:10;77884.84;;;24.76
73673;BMP280;61972;19.480;-99.240;2022-12-08T00:33:37;77895.84;;;24.76
73673;BMP280;61972;19.480;-99.240;2022-12-08T00:36:07;77894.16;;;24.74
73673;BMP280;61972;19.480;-99.240;2022-12-08T00:38:35;77892.47;;;24.73
73673;BMP280;61972;19.480;-99.240;2022-12-08T00:41:02;77902.41;;;24.72
73673;BMP280;61972;19.480;-99.240;2022-12-08T00:43:28;77901.28;;;24.71
73673;BMP280;61972;19.480;-99.240;2022-12-08T00:45:55;77910.03;;;24.70
73673;BMP280;61972;19.480;-99.240;2022-12-08T00:48:21;77917.34;;;24.69
73673;BMP280;61972;19.480;-99.240;2022-12-08T00:50:47;77914.16;;;24.69
73673;BMP280;61972;19.480;-99.240;2022-12-08T00:53:13;77926.66;;;24.68
73673;BMP280;61972;19.480;-99.240;2022-12-08T00:55:39;77932.25;;;24.66
73673;BMP280;61972;19.480;-99.240;2022-12-08T00:58:05;77932.25;;;24.66
73673;BMP280;61972;19.480;-99.240;2022-12-08T01:00:31;77934.84;;;24.66
73673;BMP280;61972;19.480;-99.240;2022-12-08T01:02:57;77933.19;;;24.65
73673;BMP280;61972;19.480;-99.240;2022-12-08T01:05:23;77938.97;;;24.65
73673;BMP280;61972;19.480;-99.240;2022-12-08T01:07:49;77947.75;;;24.64
73673;BMP280;61972;19.480;-99.240;2022-12-08T01:10:16;77939.34;;;24.63
73673;BMP280;61972;19.480;-99.240;2022-12-08T01:12:42;77953.34;;;24.62
73673;BMP280;61972;19.480;-99.240;2022-12-08T01:15:08;77948.13;;;24.62
73673;BMP280;61972;19.480;-99.240;2022-12-08T01:17:36;77954.28;;;24.60
73673;BMP280;61972;19.480;-99.240;2022-12-08T01:20:03;77955.78;;;24.59
73673;BMP280;61972;19.480;-99.240;2022-12-08T01:22:30;77966.78;;;24.60
73673;BMP280;61972;19.480;-99.240;2022-12-08T01:24:56;77962.50;;;24.58
73673;BMP280;61972;19.480;-99.240;2022-12-08T01:27:22;77958.78;;;24.57
73673;BMP280;61972;19.480;-99.240;2022-12-08T01:29:48;77968.09;;;24.56
73673;BMP280;61972;19.480;-99.240;2022-12-08T01:32:14;77979.09;;;24.57
73673;BMP280;61972;19.480;-99.240;2022-12-08T01:34:40;77977.41;;;24.55
73673;BMP280;61972;19.480;-99.240;2022-12-08T01:37:06;77975.75;;;24.53
73673;BMP280;61972;19.480;-99.240;2022-12-08T01:39:33;77983.59;;;24.53
73673;BMP280;61972;19.480;-99.240;2022-12-08T01:41:59;77983.59;;;24.53
73673;BMP280;61972;19.480;-99.240;2022-12-08T01:46:52;77995.53;;;24.52
73673;BMP280;61972;19.480;-99.240;2022-12-08T01:49:29;77994.94;;;24.52
73673;BMP280;61972;19.480;-99.240;2022-12-08T01:54:27;78000.56;;;24.50
73673;BMP280;61972;19.480;-99.240;2022-12-08T01:57:07;78006.13;;;24.48
73673;BMP280;61972;19.480;-99.240;2022-12-08T01:59:40;78006.13;;;24.48
73673;BMP280;61972;19.480;-99.240;2022-12-08T02:02:08;78012.88;;;24.47
73673;BMP280;61972;19.480;-99.240;2022-12-08T02:04:35;78021.28;;;24.47
73673;BMP280;61972;19.480;-99.240;2022-12-08T02:07:02;78014.38;;;24.46
73673;BMP280;61972;19.480;-99.240;2022-12-08T02:09:29;78015.84;;;24.45
73673;BMP280;61972;19.480;-99.240;2022-12-08T02:11:56;78018.84;;;24.43
73673;BMP280;61972;19.480;-99.240;2022-12-08T02:14:23;78022.94;;;24.42
73673;BMP280;61972;19.480;-99.240;2022-12-08T02:22:27;78021.63;;;24.38
73673;BMP280;61972;19.480;-99.240;2022-12-08T02:25:04;78021.06;;;24.37
73673;BMP280;61972;19.480;-99.240;2022-12-08T02:30:25;78035.63;;;24.36
73673;BMP280;61972;19.480;-99.240;2022-12-08T02:33:26;78028.16;;;24.34
73673;BMP280;61972;19.480;-99.240;2022-12-08T02:36:20;78036.38;;;24.32
73673;BMP280;61972;19.480;-99.240;2022-12-08T02:41:40;78043.06;;;24.31
73673;BMP280;61972;19.480;-99.240;2022-12-08T02:44:36;78044.56;;;24.30
73673;BMP280;61972;19.480;-99.240;2022-12-08T02:47:13;78043.44;;;24.29
73673;BMP280;61972;19.480;-99.240;2022-12-08T02:49:41;78046.41;;;24.27
73673;BMP280;61972;19.480;-99.240;2022-12-08T02:54:42;78067.88;;;24.28
73673;BMP280;61972;19.480;-99.240;2022-12-08T02:57:28;78063.56;;;24.26
73673;BMP280;61972;19.480;-99.240;2022-12-08T03:00:08;78070.28;;;24.25
73673;BMP280;61972;19.480;-99.240;2022-12-08T03:08:14;78075.88;;;24.23
73673;BMP280;61972;19.480;-99.240;2022-12-08T03:10:55;78085.75;;;24.23
73673;BMP280;61972;19.480;-99.240;2022-12-08T03:13:31;78090.44;;;24.22
73673;BMP280;61972;19.480;-99.240;2022-12-08T03:16:00;78096.00;;;24.20
73673;BMP280;61972;19.480;-99.240;2022-12-08T03:18:31;78098.06;;;24.19
73673;BMP280;61972;19.480;-99.240;2022-12-08T03:21:02;78100.09;;;24.19
73673;BMP280;61972;19.480;-99.240;2022-12-08T03:23:29;78094.88;;;24.19
73673;BMP280;61972;19.480;-99.240;2022-12-08T03:26:03;78093.78;;;24.18
73673;BMP280;61972;19.480;-99.240;2022-12-08T03:28:32;78104.22;;;24.18
73673;BMP280;61972;19.480;-99.240;2022-12-08T03:31:02;78103.09;;;24.17
73673;BMP280;61972;19.480;-99.240;2022-12-08T03:33:33;78104.56;;;24.16
73673;BMP280;61972;19.480;-99.240;2022-12-08T03:36:03;78108.66;;;24.15
73673;BMP280;61972;19.480;-99.240;2022-12-08T03:38:42;78112.78;;;24.14
73673;BMP280;61972;19.480;-99.240;2022-12-08T03:41:09;78111.28;;;24.15
73673;BMP280;61972;19.480;-99.240;2022-12-08T03:43:50;78118.56;;;24.14
73673;BMP280;61972;19.480;-99.240;2022-12-08T03:46:18;78118.34;;;24.12
73673;BMP280;61972;19.480;-99.240;2022-12-08T03:48:45;78125.28;;;24.13
73673;BMP280;61972;19.480;-99.240;2022-12-08T03:51:11;78124.69;;;24.13
73673;BMP280;61972;19.480;-99.240;2022-12-08T03:53:37;78117.78;;;24.11
73673;BMP280;61972;19.480;-99.240;2022-12-08T03:58:50;78129.53;;;24.08
73673;BMP280;61972;19.480;-99.240;2022-12-08T04:01:17;78130.63;;;24.09
73673;BMP280;61972;19.480;-99.240;2022-12-08T04:03:43;78140.53;;;24.08
73673;BMP280;61972;19.480;-99.240;2022-12-08T04:06:09;78137.38;;;24.08
73673;BMP280;61972;19.480;-99.240;2022-12-08T04:08:35;78142.59;;;24.08
73673;BMP280;61972;19.480;-99.240;2022-12-08T04:11:01;78142.59;;;24.08
73673;BMP280;61972;19.480;-99.240;2022-12-08T04:13:28;78143.50;;;24.06
73673;BMP280;61972;19.480;-99.240;2022-12-08T04:15:54;78144.09;;;24.07
73673;BMP280;61972;19.480;-99.240;2022-12-08T04:18:20;78144.44;;;24.05
73673;BMP280;61972;19.480;-99.240;2022-12-08T04:20:47;78143.31;;;24.04
73673;BMP280;61972;19.480;-99.240;2022-12-08T04:23:13;78139.00;;;24.02
73673;BMP280;61972;19.480;-99.240;2022-12-08T04:25:39;78138.47;;;24.02
73673;BMP280;61972;19.480;-99.240;2022-12-08T04:28:06;78141.44;;;23.99
73673;BMP280;61972;19.480;-99.240;2022-12-08T04:30:32;78140.31;;;23.98
73673;BMP280;61972;19.480;-99.240;2022-12-08T04:32:58;78146.09;;;23.99
73673;BMP280;61972;19.480;-99.240;2022-12-08T04:35:24;78148.72;;;23.99
73673;BMP280;61972;19.480;-99.240;2022-12-08T04:37:51;78147.56;;;23.98
73673;BMP280;61972;19.480;-99.240;2022-12-08T04:40:17;78150.75;;;23.98
73673;BMP280;61972;19.480;-99.240;2022-12-08T04:42:43;78150.75;;;23.98
73673;BMP280;61972;19.480;-99.240;2022-12-08T04:45:10;78153.69;;;23.96
73673;BMP280;61972;19.480;-99.240;2022-12-08T04:47:36;78152.59;;;23.95
73673;BMP280;61972;19.480;-99.240;2022-12-08T04:50:03;78153.69;;;23.96
73673;BMP280;61972;19.480;-99.240;2022-12-08T04:52:29;78151.47;;;23.94
73673;BMP280;61972;19.480;-99.240;2022-12-08T04:54:55;78153.53;;;23.94
73673;BMP280;61972;19.480;-99.240;2022-12-08T04:57:22;78149.25;;;23.92
73673;BMP280;61972;19.480;-99.240;2022-12-08T04:59:48;78153.34;;;23.91
73673;BMP280;61972;19.480;-99.240;2022-12-08T05:02:14;78153.88;;;23.92
73673;BMP280;61972;19.480;-99.240;2022-12-08T05:04:40;78163.78;;;23.91
73673;BMP280;61972;19.480;-99.240;2022-12-08T05:07:06;78157.06;;;23.92
73673;BMP280;61972;19.480;-99.240;2022-12-08T05:09:32;78160.22;;;23.93
73673;BMP280;61972;19.480;-99.240;2022-12-08T05:11:59;78154.81;;;23.90
73673;BMP280;61972;19.480;-99.240;2022-12-08T05:14:25;78155.94;;;23.91
73673;BMP280;61972;19.480;-99.240;2022-12-08T05:16:51;78157.41;;;23.90
73673;BMP280;61972;19.480;-99.240;2022-12-08T05:19:17;78146.41;;;23.90
73673;BMP280;61972;19.480;-99.240;2022-12-08T05:21:43;78147.34;;;23.88
73673;BMP280;61972;19.480;-99.240;2022-12-08T05:24:10;78147.34;;;23.88
73673;BMP280;61972;19.480;-99.240;2022-12-08T05:26:36;78152.56;;;23.88
73673;BMP280;61972;19.480;-99.240;2022-12-08T05:29:02;78148.28;;;23.87
73673;BMP280;61972;19.480;-99.240;2022-12-08T05:31:28;78153.50;;;23.87
73673;BMP280;61972;19.480;-99.240;2022-12-08T05:33:54;78147.69;;;23.86
73673;BMP280;61972;19.480;-99.240;2022-12-08T05:36:20;78146.03;;;23.85
73673;BMP280;61972;19.480;-99.240;2022-12-08T05:38:47;78145.47;;;23.84
73673;BMP280;61972;19.480;-99.240;2022-12-08T05:41:16;78144.91;;;23.84
73673;BMP280;61972;19.480;-99.240;2022-12-08T05:43:42;78141.16;;;23.82
73673;BMP280;61972;19.480;-99.240;2022-12-08T05:46:09;78140.59;;;23.82
73673;BMP280;61972;19.480;-99.240;2022-12-08T05:48:36;78139.50;;;23.81
73673;BMP280;61972;19.480;-99.240;2022-12-08T05:51:02;78140.97;;;23.80
73673;BMP280;61972;19.480;-99.240;2022-12-08T05:53:28;78140.41;;;23.79
73673;BMP280;61972;19.480;-99.240;2022-12-08T05:55:54;78145.06;;;23.79
73673;BMP280;61972;19.480;-99.240;2022-12-08T05:58:21;78143.38;;;23.77
73673;BMP280;61972;19.480;-99.240;2022-12-08T06:00:49;78135.91;;;23.75
73673;BMP280;61972;19.480;-99.240;2022-12-08T06:03:17;78144.66;;;23.74
73673;BMP280;61972;19.480;-99.240;2022-12-08T06:05:44;78144.66;;;23.74
73673;BMP280;61972;19.480;-99.240;2022-12-08T06:08:11;78132.53;;;23.72
73673;BMP280;61972;19.480;-99.240;2022-12-08T06:10:41;78139.78;;;23.72
73673;BMP280;61972;19.480;-99.240;2022-12-08T06:13:08;78138.66;;;23.71
73673;BMP280;61972;19.480;-99.240;2022-12-08T06:15:37;78127.13;;;23.70
73673;BMP280;61972;19.480;-99.240;2022-12-08T06:18:04;78122.81;;;23.68
73673;BMP280;61972;19.480;-99.240;2022-12-08T06:20:30;78124.31;;;23.67
73673;BMP280;61972;19.480;-99.240;2022-12-08T06:22:57;78124.31;;;23.67
73673;BMP280;61972;19.480;-99.240;2022-12-08T06:25:23;78120.59;;;23.66
73673;BMP280;61972;19.480;-99.240;2022-12-08T06:27:49;78107.34;;;23.63
73673;BMP280;61972;19.480;-99.240;2022-12-08T06:30:16;78107.34;;;23.63
73673;BMP280;61972;19.480;-99.240;2022-12-08T06:32:42;78114.06;;;23.62
73673;BMP280;61972;19.480;-99.240;2022-12-08T06:35:09;78105.09;;;23.61
73673;BMP280;61972;19.480;-99.240;2022-12-08T06:37:35;78110.66;;;23.59
73673;BMP280;61972;19.480;-99.240;2022-12-08T06:40:02;78113.84;;;23.60
73673;BMP280;61972;19.480;-99.240;2022-12-08T06:42:28;78112.16;;;23.58
73673;BMP280;61972;19.480;-99.240;2022-12-08T06:45:10;78106.94;;;23.58
73673;BMP280;61972;19.480;-99.240;2022-12-08T06:47:37;78113.63;;;23.57
73673;BMP280;61972;19.480;-99.240;2022-12-08T06:50:04;78106.72;;;23.56
73673;BMP280;61972;19.480;-99.240;2022-12-08T06:52:30;78110.84;;;23.55
73673;BMP280;61972;19.480;-99.240;2022-12-08T06:54:57;78106.53;;;23.53
73673;BMP280;61972;19.480;-99.240;2022-12-08T06:57:23;78105.41;;;23.52
73673;BMP280;61972;19.480;-99.240;2022-12-08T06:59:49;78105.41;;;23.52
73673;BMP280;61972;19.480;-99.240;2022-12-08T07:02:15;78105.22;;;23.50
73673;BMP280;61972;19.480;-99.240;2022-12-08T07:04:42;78106.72;;;23.49
73673;BMP280;61972;19.480;-99.240;2022-12-08T07:07:08;78103.88;;;23.46
73673;BMP280;61972;19.480;-99.240;2022-12-08T07:09:34;78113.19;;;23.45
73673;BMP280;61972;19.480;-99.240;2022-12-08T07:12:02;78115.78;;;23.45
73673;BMP280;61972;19.480;-99.240;2022-12-08T07:14:28;78122.50;;;23.44
73673;BMP280;61972;19.480;-99.240;2022-12-08T07:16:55;78121.38;;;23.43
73673;BMP280;61972;19.480;-99.240;2022-12-08T07:19:21;78126.59;;;23.43
73673;BMP280;61972;19.480;-99.240;2022-12-08T07:21:47;78113.91;;;23.41
73673;BMP280;61972;19.480;-99.240;2022-12-08T07:24:13;78129.56;;;23.41
73673;BMP280;61972;19.480;-99.240;2022-12-08T07:26:39;78122.66;;;23.39
73673;BMP280;61972;19.480;-99.240;2022-12-08T07:29:06;78120.97;;;23.38
73673;BMP280;61972;19.480;-99.240;2022-12-08T07:31:33;78113.53;;;23.36
73673;BMP280;61972;19.480;-99.240;2022-12-08T07:33:59;78112.38;;;23.35
73673;BMP280;61972;19.480;-99.240;2022-12-08T07:36:25;78116.47;;;23.34
73673;BMP280;61972;19.480;-99.240;2022-12-08T07:38:52;78110.13;;;23.33
73673;BMP280;61972;19.480;-99.240;2022-12-08T07:41:21;78110.50;;;23.31
73673;BMP280;61972;19.480;-99.240;2022-12-08T07:43:47;78110.88;;;23.28
73673;BMP280;61972;19.480;-99.240;2022-12-08T07:46:16;78109.75;;;23.27
73673;BMP280;61972;19.480;-99.240;2022-12-08T07:48:43;78103.41;;;23.26
73673;BMP280;61972;19.480;-99.240;2022-12-08T07:51:10;78101.16;;;23.24
73673;BMP280;61972;19.480;-99.240;2022-12-08T07:53:38;78099.47;;;23.23
73673;BMP280;61972;19.480;-99.240;2022-12-08T07:56:06;78097.78;;;23.21
73673;BMP280;61972;19.480;-99.240;2022-12-08T07:58:33;78096.66;;;23.20
73673;BMP280;61972;19.480;-99.240;2022-12-08T08:00:59;78095.53;;;23.19
73673;BMP280;61972;19.480;-99.240;2022-12-08T08:03:25;78095.88;;;23.17
73673;BMP280;61972;19.480;-99.240;2022-12-08T08:05:51;78095.88;;;23.17
73673;BMP280;61972;19.480;-99.240;2022-12-08T08:08:17;78094.56;;;23.14
73673;BMP280;61972;19.480;-99.240;2022-12-08T08:10:44;78092.88;;;23.12
73673;BMP280;61972;19.480;-99.240;2022-12-08T08:13:12;78086.53;;;23.11
73673;BMP280;61972;19.480;-99.240;2022-12-08T08:15:39;78082.81;;;23.10
73673;BMP280;61972;19.480;-99.240;2022-12-08T08:18:06;78080.56;;;23.08
73673;BMP280;61972;19.480;-99.240;2022-12-08T08:20:32;78086.13;;;23.06
73673;BMP280;61972;19.480;-99.240;2022-12-08T08:22:58;78082.41;;;23.05
73673;BMP280;61972;19.480;-99.240;2022-12-08T08:25:24;78080.72;;;23.03
73673;BMP280;61972;19.480;-99.240;2022-12-08T08:27:50;78079.03;;;23.02
73673;BMP280;61972;19.480;-99.240;2022-12-08T08:30:17;78075.88;;;23.01
73673;BMP280;61972;19.480;-99.240;2022-12-08T08:32:43;78075.31;;;23.01
73673;BMP280;61972;19.480;-99.240;2022-12-08T08:35:09;78071.59;;;23.00
73673;BMP280;61972;19.480;-99.240;2022-12-08T08:37:35;78067.84;;;22.99
73673;BMP280;61972;19.480;-99.240;2022-12-08T08:40:01;78062.44;;;22.96
73673;BMP280;61972;19.480;-99.240;2022-12-08T08:42:27;78067.66;;;22.96
73673;BMP280;61972;19.480;-99.240;2022-12-08T08:44:54;78065.41;;;22.94
73673;BMP280;61972;19.480;-99.240;2022-12-08T08:47:20;78064.84;;;22.94
73673;BMP280;61972;19.480;-99.240;2022-12-08T08:49:46;78059.41;;;22.91
73673;BMP280;61972;19.480;-99.240;2022-12-08T08:52:12;78058.28;;;22.90
73673;BMP280;61972;19.480;-99.240;2022-12-08T08:54:38;78054.03;;;22.88
73673;BMP280;61972;19.480;-99.240;2022-12-08T08:57:04;78054.38;;;22.86
73673;BMP280;61972;19.480;-99.240;2022-12-08T08:59:30;78064.22;;;22.86
73673;BMP280;61972;19.480;-99.240;2022-12-08T09:02:00;78063.09;;;22.85
73673;BMP280;61972;19.480;-99.240;2022-12-08T09:04:26;78058.81;;;22.83
73673;BMP280;61972;19.480;-99.240;2022-12-08T09:06:53;78063.09;;;22.85
73673;BMP280;61972;19.480;-99.240;2022-12-08T09:09:19;78069.22;;;22.83
73673;BMP280;61972;19.480;-99.240;2022-12-08T09:11:45;78077.03;;;22.83
73673;BMP280;61972;19.480;-99.240;2022-12-08T09:14:13;78062.91;;;22.82
73673;BMP280;61972;19.480;-99.240;2022-12-08T09:16:43;78060.66;;;22.80
73673;BMP280;61972;19.480;-99.240;2022-12-08T09:19:09;78060.47;;;22.78
73673;BMP280;61972;19.480;-99.240;2022-12-08T09:21:35;78062.84;;;22.75
73673;BMP280;61972;19.480;-99.240;2022-12-08T09:24:01;78064.34;;;22.74
73673;BMP280;61972;19.480;-99.240;2022-12-08T09:26:28;78065.25;;;22.72
73673;BMP280;61972;19.480;-99.240;2022-12-08T09:28:55;78061.50;;;22.71
73673;BMP280;61972;19.480;-99.240;2022-12-08T09:31:22;78061.31;;;22.69
73673;BMP280;61972;19.480;-99.240;2022-12-08T09:33:49;78059.06;;;22.67
73673;BMP280;61972;19.480;-99.240;2022-12-08T09:36:19;78064.25;;;22.67
73673;BMP280;61972;19.480;-99.240;2022-12-08T09:38:45;78060.53;;;22.66
73673;BMP280;61972;19.480;-99.240;2022-12-08T09:41:16;78060.88;;;22.64
73673;BMP280;61972;19.480;-99.240;2022-12-08T09:43:59;78069.41;;;22.60
73673;BMP280;61972;19.480;-99.240;2022-12-08T09:46:29;78066.06;;;22.57
73673;BMP280;61972;19.480;-99.240;2022-12-08T09:48:58;78070.50;;;22.53
73673;BMP280;61972;19.480;-99.240;2022-12-08T09:51:27;78072.91;;;22.51
73673;BMP280;61972;19.480;-99.240;2022-12-08T09:54:37;78071.22;;;22.49
73673;BMP280;61972;19.480;-99.240;2022-12-08T09:57:00;78077.13;;;22.45
73673;BMP280;61972;19.480;-99.240;2022-12-08T09:59:32;78077.47;;;22.43
73673;BMP280;61972;19.480;-99.240;2022-12-08T10:02:00;78084.16;;;22.42
73673;BMP280;61972;19.480;-99.240;2022-12-08T10:04:30;78081.91;;;22.40
73673;BMP280;61972;19.480;-99.240;2022-12-08T10:09:51;78081.50;;;22.35
73673;BMP280;61972;19.480;-99.240;2022-12-08T10:15:37;78079.94;;;22.29
73673;BMP280;61972;19.480;-99.240;2022-12-08T10:18:16;78084.00;;;22.28
73673;BMP280;61972;19.480;-99.240;2022-12-08T10:20:45;78084.38;;;22.26
73673;BMP280;61972;19.480;-99.240;2022-12-08T10:25:49;78077.28;;;22.22
73673;BMP280;61972;19.480;-99.240;2022-12-08T10:28:15;78080.78;;;22.20
73673;BMP280;61972;19.480;-99.240;2022-12-08T10:30:42;78084.31;;;22.18
73673;BMP280;61972;19.480;-99.240;2022-12-08T10:33:15;78088.38;;;22.17
73673;BMP280;61972;19.480;-99.240;2022-12-08T10:35:50;78083.00;;;22.15
73673;BMP280;61972;19.480;-99.240;2022-12-08T10:40:46;78076.41;;;22.11
73673;BMP280;61972;19.480;-99.240;2022-12-08T10:43:17;78082.56;;;22.10
73673;BMP280;61972;19.480;-99.240;2022-12-08T10:45:45;78088.66;;;22.08
73673;BMP280;61972;19.480;-99.240;2022-12-08T10:48:27;78082.34;;;22.07
73673;BMP280;61972;19.480;-99.240;2022-12-08T10:50:56;78080.66;;;22.06
73673;BMP280;61972;19.480;-99.240;2022-12-08T10:53:31;78078.97;;;22.04
73673;BMP280;61972;19.480;-99.240;2022-12-08T10:58:35;78071.28;;;21.99
73673;BMP280;61972;19.480;-99.240;2022-12-08T11:01:25;78070.53;;;21.96
73673;BMP280;61972;19.480;-99.240;2022-12-08T11:04:00;78068.84;;;21.95
73673;BMP280;61972;19.480;-99.240;2022-12-08T11:08:56;78073.81;;;21.92
73673;BMP280;61972;19.480;-99.240;2022-12-08T11:11:47;78074.75;;;21.91
73673;BMP280;61972;19.480;-99.240;2022-12-08T11:14:29;78080.47;;;21.91
73673;BMP280;61972;19.480;-99.240;2022-12-08T11:17:08;78088.09;;;21.89
73673;BMP280;61972;19.480;-99.240;2022-12-08T11:19:41;78093.63;;;21.87
73673;BMP280;61972;19.480;-99.240;2022-12-08T11:27:29;78089.50;;;21.80
73673;BMP280;61972;19.480;-99.240;2022-12-08T11:29:56;78094.69;;;21.80
73673;BMP280;61972;19.480;-99.240;2022-12-08T11:32:22;78097.66;;;21.78
73673;BMP280;61972;19.480;-99.240;2022-12-08T11:34:59;78097.78;;;21.74
73673;BMP280;61972;19.480;-99.240;2022-12-08T11:37:38;78098.34;;;21.74
73673;BMP280;61972;19.480;-99.240;2022-12-08T11:40:22;78096.66;;;21.73
73673;BMP280;61972;19.480;-99.240;2022-12-08T11:42:58;78097.56;;;21.71
73673;BMP280;61972;19.480;-99.240;2022-12-08T11:45:29;78100.84;;;21.67
73673;BMP280;61972;19.480;-99.240;2022-12-08T11:48:13;78099.16;;;21.65
73673;BMP280;61972;19.480;-99.240;2022-12-08T11:50:50;78093.41;;;21.65
73673;BMP280;61972;19.480;-99.240;2022-12-08T11:53:28;78093.41;;;21.65
73673;BMP280;61972;19.480;-99.240;2022-12-08T11:56:07;78092.28;;;21.64
73673;BMP280;61972;19.480;-99.240;2022-12-08T11:58:40;78097.47;;;21.64
73673;BMP280;61972;19.480;-99.240;2022-12-08T12:01:28;78090.03;;;21.62
73673;BMP280;61972;19.480;-99.240;2022-12-08T12:13:08;78079.53;;;21.55
73673;BMP280;61972;19.480;-99.240;2022-12-08T12:18:49;78073.91;;;21.50
73673;BMP280;61972;19.480;-99.240;2022-12-08T12:23:55;78075.72;;;21.46
73673;BMP280;61972;19.480;-99.240;2022-12-08T12:26:27;78080.34;;;21.46
73673;BMP280;61972;19.480;-99.240;2022-12-08T12:29:01;78076.09;;;21.44
73673;BMP280;61972;19.480;-99.240;2022-12-08T12:34:15;78074.38;;;21.43
73673;BMP280;61972;19.480;-99.240;2022-12-08T12:36:49;78079.03;;;21.42
73673;BMP280;61972;19.480;-99.240;2022-12-08T12:39:18;78080.50;;;21.41
73673;BMP280;61972;19.480;-99.240;2022-12-08T12:41:51;78086.59;;;21.40
73673;BMP280;61972;19.480;-99.240;2022-12-08T12:44:21;78080.84;;;21.39
73673;BMP280;61972;19.480;-99.240;2022-12-08T12:57:53;78085.16;;;21.29
73673;BMP280;61972;19.480;-99.240;2022-12-08T13:00:22;78089.81;;;21.28
73673;BMP280;61972;19.480;-99.240;2022-12-08T13:02:56;78087.53;;;21.26
73673;BMP280;61972;19.480;-99.240;2022-12-08T13:05:29;78091.03;;;21.25
73673;BMP280;61972;19.480;-99.240;2022-12-08T13:11:08;78098.63;;;21.22
73673;BMP280;61972;19.480;-99.240;2022-12-08T13:13:54;78102.69;;;21.21
73673;BMP280;61972;19.480;-99.240;2022-12-08T13:16:24;78106.22;;;21.20
73673;BMP280;61972;19.480;-99.240;2022-12-08T13:18:58;78111.75;;;21.18
73673;BMP280;61972;19.480;-99.240;2022-12-08T13:21:35;78111.53;;;21.15
73673;BMP280;61972;19.480;-99.240;2022-12-08T13:26:46;78120.78;;;21.14
73673;BMP280;61972;19.480;-99.240;2022-12-08T13:29:22;78121.34;;;21.15
73673;BMP280;61972;19.480;-99.240;2022-12-08T13:31:54;78124.28;;;21.12
73673;BMP280;61972;19.480;-99.240;2022-12-08T13:34:29;78127.81;;;21.11
73673;BMP280;61972;19.480;-99.240;2022-12-08T13:45:00;78133.69;;;21.07
73673;BMP280;61972;19.480;-99.240;2022-12-08T13:47:36;78133.09;;;21.06
73673;BMP280;61972;19.480;-99.240;2022-12-08T13:50:18;78136.63;;;21.05
73673;BMP280;61972;19.480;-99.240;2022-12-08T13:52:58;78141.25;;;21.04
73673;BMP280;61972;19.480;-99.240;2022-12-08T13:55:31;78142.72;;;21.03
73673;BMP280;61972;19.480;-99.240;2022-12-08T13:57:59;78149.94;;;21.03
73673;BMP280;61972;19.480;-99.240;2022-12-08T14:00:25;78147.69;;;21.01
73673;BMP280;61972;19.480;-99.240;2022-12-08T14:02:57;78148.38;;;20.97
73673;BMP280;61972;19.480;-99.240;2022-12-08T14:05:24;78150.41;;;20.96
73673;BMP280;61972;19.480;-99.240;2022-12-08T14:07:54;78153.91;;;20.94
73673;BMP280;61972;19.480;-99.240;2022-12-08T14:10:28;78165.78;;;20.93
73673;BMP280;61972;19.480;-99.240;2022-12-08T14:13:00;78164.06;;;20.92
73673;BMP280;61972;19.480;-99.240;2022-12-08T14:15:27;78168.16;;;20.91
73673;BMP280;61972;19.480;-99.240;2022-12-08T14:17:55;78172.22;;;20.90
73673;BMP280;61972;19.480;-99.240;2022-12-08T14:20:27;78176.28;;;20.89
73673;BMP280;61972;19.480;-99.240;2022-12-08T14:22:55;78172.22;;;20.90
73673;BMP280;61972;19.480;-99.240;2022-12-08T14:25:22;78176.28;;;20.89
73673;BMP280;61972;19.480;-99.240;2022-12-08T14:27:49;78176.59;;;20.87
73673;BMP280;61972;19.480;-99.240;2022-12-08T14:30:27;78180.69;;;20.86
73673;BMP280;61972;19.480;-99.240;2022-12-08T14:32:58;78182.13;;;20.85
73673;BMP280;61972;19.480;-99.240;2022-12-08T14:35:29;78185.06;;;20.83
73673;BMP280;61972;19.480;-99.240;2022-12-08T14:38:01;78180.22;;;20.81
73673;BMP280;61972;19.480;-99.240;2022-12-08T14:40:38;78186.88;;;20.80
73673;BMP280;61972;19.480;-99.240;2022-12-08T14:48:38;78203.13;;;20.75
73673;BMP280;61972;19.480;-99.240;2022-12-08T14:56:25;78204.94;;;20.72
73673;BMP280;61972;19.480;-99.240;2022-12-08T15:01:43;78201.00;;;20.69
73673;BMP280;61972;19.480;-99.240;2022-12-08T15:12:01;78208.53;;;20.66
73673;BMP280;61972;19.480;-99.240;2022-12-08T15:14:33;78208.53;;;20.66
73673;BMP280;61972;19.480;-99.240;2022-12-08T15:17:00;78207.97;;;20.66
73673;BMP280;61972;19.480;-99.240;2022-12-08T15:19:29;78211.13;;;20.66
73673;BMP280;61972;19.480;-99.240;2022-12-08T15:22:16;78212.59;;;20.65
73673;BMP280;61972;19.480;-99.240;2022-12-08T15:24:44;78206.28;;;20.64
73673;BMP280;61972;19.480;-99.240;2022-12-08T15:27:16;78206.84;;;20.65
73673;BMP280;61972;19.480;-99.240;2022-12-08T15:29:43;78203.34;;;20.66
73673;BMP280;61972;19.480;-99.240;2022-12-08T15:32:11;78208.53;;;20.66
73673;BMP280;61972;19.480;-99.240;2022-12-08T15:34:37;78206.19;;;20.69
73673;BMP280;61972;19.480;-99.240;2022-12-08T15:37:04;78211.59;;;20.71
73673;BMP280;61972;19.480;-99.240;2022-12-08T15:39:38;78210.13;;;20.72
73673;BMP280;61972;19.480;-99.240;2022-12-08T15:42:09;78211.28;;;20.73
73673;BMP280;61972;19.480;-99.240;2022-12-08T15:44:37;78210.13;;;20.72
73673;BMP280;61972;19.480;-99.240;2022-12-08T15:47:03;78211.03;;;20.71
73673;BMP280;61972;19.480;-99.240;2022-12-08T15:49:30;78214.78;;;20.72